Time;durP1;ratioP1;P1;durP2;ratioP2;P2;SDS_P1;SDS_P2;PMS_P1;PMS_P2;Temp;Humidity;BMP_temperature;BMP_pressure;BME280_temperature;BME280_humidity;BME280_pressure;Samples;Min_cycle;Max_cycle;Signal;HPM_P1;HPM_P2
2022/10/13 00:00:30;;;;;;;36.03;14.15;;;9.00;99.90;;;;;;5017160;28;20034;-58
2022/10/13 00:02:59;;;;;;;33.70;14.65;;;8.90;99.90;;;;;;5020482;28;20030;-61
2022/10/13 00:05:25;;;;;;;17.10;13.68;;;9.00;99.90;;;;;;5018078;28;20037;-59
2022/10/13 00:07:50;;;;;;;15.00;13.50;;;8.90;99.90;;;;;;5015805;28;20033;-60
2022/10/13 00:10:16;;;;;;;28.40;13.40;;;8.90;99.90;;;;;;5016629;28;20029;-60
2022/10/13 00:12:42;;;;;;;21.75;12.90;;;8.90;99.90;;;;;;5022012;28;20449;-59
2022/10/13 00:15:08;;;;;;;18.42;15.57;;;8.80;99.90;;;;;;5018566;28;20020;-61
2022/10/13 00:17:35;;;;;;;18.75;15.48;;;8.80;99.90;;;;;;5016510;28;20500;-59
2022/10/13 00:20:04;;;;;;;25.00;15.30;;;8.90;99.90;;;;;;5015579;28;20026;-59
2022/10/13 00:22:30;;;;;;;18.88;13.73;;;8.90;99.90;;;;;;5014947;28;20022;-59
2022/10/13 00:24:55;;;;;;;13.82;11.43;;;8.80;99.90;;;;;;5015820;28;20108;-59
2022/10/13 00:27:21;;;;;;;12.98;10.63;;;8.70;99.90;;;;;;5016481;28;20041;-59
2022/10/13 00:29:46;;;;;;;13.50;12.20;;;8.70;99.90;;;;;;5019901;28;20057;-59
2022/10/13 00:32:12;;;;;;;12.32;11.02;;;8.60;99.90;;;;;;5016361;28;20049;-59
2022/10/13 00:34:38;;;;;;;14.85;11.98;;;8.60;99.90;;;;;;5017319;28;20044;-59
2022/10/13 00:37:04;;;;;;;19.05;11.27;;;8.50;99.90;;;;;;5016429;28;20029;-59
2022/10/13 00:39:30;;;;;;;27.80;11.18;;;8.50;99.90;;;;;;5018960;28;20033;-59
2022/10/13 00:41:59;;;;;;;16.42;12.63;;;8.40;99.90;;;;;;5019147;28;20053;-60
2022/10/13 00:44:59;;;;;;;22.27;14.52;;;8.40;99.90;;;;;;5021622;28;20520;-59
2022/10/13 00:47:40;;;;;;;12.57;11.38;;;8.30;99.90;;;;;;5015079;28;20034;-59
2022/10/13 00:50:12;;;;;;;19.03;14.40;;;8.30;99.90;;;;;;5014139;28;20087;-59
2022/10/13 00:52:40;;;;;;;16.85;12.90;;;8.30;99.90;;;;;;5015519;28;20288;-59
2022/10/13 00:55:08;;;;;;;21.23;13.32;;;8.30;99.90;;;;;;5016194;28;20029;-59
2022/10/13 00:57:34;;;;;;;15.27;12.90;;;8.20;99.90;;;;;;5018107;28;20979;-60
2022/10/13 01:00:03;;;;;;;22.20;14.30;;;8.20;99.90;;;;;;5019704;28;20028;-59
2022/10/13 01:02:31;;;;;;;13.88;12.50;;;8.10;99.90;;;;;;5016130;28;20025;-59
2022/10/13 01:04:58;;;;;;;18.23;13.82;;;8.10;99.90;;;;;;5017445;28;20490;-60
2022/10/13 01:07:24;;;;;;;14.25;12.75;;;8.10;99.90;;;;;;5020073;28;20056;-59
2022/10/13 01:09:50;;;;;;;18.20;13.82;;;8.20;99.90;;;;;;5022015;28;20108;-59
2022/10/13 01:12:24;;;;;;;42.60;15.10;;;8.20;99.90;;;;;;5019462;28;20088;-59
2022/10/13 01:15:13;;;;;;;21.30;16.33;;;8.20;99.90;;;;;;5017956;28;20095;-59
2022/10/13 01:17:50;;;;;;;18.80;15.80;;;8.30;99.90;;;;;;5017945;28;20033;-59
2022/10/13 01:20:32;;;;;;;23.27;16.52;;;8.30;99.90;;;;;;5020967;28;20115;-59
2022/10/13 01:23:13;;;;;;;26.95;16.17;;;8.40;99.90;;;;;;5020920;28;20021;-59
2022/10/13 01:26:00;;;;;;;26.37;15.87;;;8.40;99.90;;;;;;5020296;28;20022;-58
2022/10/13 01:28:38;;;;;;;18.08;13.18;;;8.40;99.90;;;;;;5021663;28;20296;-59
2022/10/13 01:31:11;;;;;;;11.52;10.38;;;8.40;99.90;;;;;;5021397;28;20021;-60
2022/10/13 01:33:51;;;;;;;10.35;9.43;;;8.40;99.90;;;;;;5024443;28;20044;-59
2022/10/13 01:36:23;;;;;;;10.57;9.52;;;8.40;99.90;;;;;;5021395;28;20034;-59
2022/10/13 01:39:23;;;;;;;16.58;10.20;;;8.40;99.90;;;;;;5017641;28;20494;-59
2022/10/13 01:41:52;;;;;;;91.10;11.15;;;8.30;99.90;;;;;;5024291;28;20025;-58
2022/10/13 01:44:31;;;;;;;262.58;14.82;;;8.30;99.90;;;;;;5021958;28;20037;-59
2022/10/13 01:46:58;;;;;;;100.22;11.77;;;8.30;99.90;;;;;;5021045;28;20524;-58
2022/10/13 01:49:29;;;;;;;54.58;11.52;;;8.20;99.90;;;;;;5023149;28;20556;-59
2022/10/13 01:51:58;;;;;;;15.75;11.02;;;8.10;99.90;;;;;;5016025;28;20046;-59
2022/10/13 01:54:24;;;;;;;105.65;13.10;;;8.10;99.90;;;;;;5015865;28;20593;-59
2022/10/13 01:56:54;;;;;;;15.98;11.95;;;8.00;99.90;;;;;;5021167;28;20124;-59
2022/10/13 01:59:21;;;;;;;16.07;12.63;;;8.00;99.90;;;;;;5017390;28;20061;-60
2022/10/13 02:02:07;;;;;;;14.02;12.50;;;8.00;99.90;;;;;;5018610;28;20034;-59
2022/10/13 02:05:29;;;;;;;15.57;12.38;;;8.00;99.90;;;;;;5018933;28;20028;-58
2022/10/13 02:08:28;;;;;;;15.20;13.63;;;8.00;99.90;;;;;;4961652;28;20043;-59
2022/10/13 02:11:14;;;;;;;26.80;14.85;;;8.00;99.90;;;;;;4933394;28;20066;-59
2022/10/13 02:13:51;;;;;;;21.98;15.15;;;8.00;99.90;;;;;;5017095;28;20876;-59
2022/10/13 02:16:20;;;;;;;21.85;15.68;;;8.00;99.90;;;;;;5017061;28;20029;-59
2022/10/13 02:18:46;;;;;;;18.52;15.40;;;8.00;99.90;;;;;;5016148;28;20033;-59
2022/10/13 02:21:14;;;;;;;26.75;16.63;;;8.10;99.90;;;;;;5014529;28;20061;-58
2022/10/13 02:23:41;;;;;;;22.83;17.02;;;8.10;99.90;;;;;;5018967;28;20037;-60
2022/10/13 02:26:07;;;;;;;25.02;17.38;;;8.10;99.90;;;;;;5017652;28;20120;-60
2022/10/13 02:28:36;;;;;;;21.75;18.65;;;8.10;99.90;;;;;;5019653;28;20030;-59
2022/10/13 02:31:02;;;;;;;27.90;19.38;;;8.10;99.90;;;;;;5015282;28;20033;-58
2022/10/13 02:33:28;;;;;;;23.48;18.33;;;8.10;99.90;;;;;;5023124;28;20041;-61
2022/10/13 02:35:54;;;;;;;35.95;19.13;;;8.10;99.90;;;;;;5019131;28;20033;-59
2022/10/13 02:38:19;;;;;;;28.27;18.48;;;8.10;99.90;;;;;;5021946;28;20029;-59
2022/10/13 02:40:45;;;;;;;31.67;18.23;;;8.10;99.90;;;;;;5018161;28;20053;-58
2022/10/13 02:43:11;;;;;;;38.20;19.77;;;8.10;99.90;;;;;;5021144;28;20083;-60
2022/10/13 02:45:36;;;;;;;34.13;19.10;;;8.10;99.90;;;;;;5021003;28;20417;-57
2022/10/13 02:48:02;;;;;;;33.95;19.70;;;8.10;99.90;;;;;;5014211;28;20125;-59
2022/10/13 02:50:28;;;;;;;28.13;18.92;;;8.10;99.90;;;;;;5018706;28;20389;-59
2022/10/13 02:52:54;;;;;;;33.65;20.42;;;8.20;99.90;;;;;;5021046;28;20525;-59
2022/10/13 02:55:19;;;;;;;34.45;19.60;;;8.20;99.90;;;;;;5020307;28;20026;-60
2022/10/13 02:57:45;;;;;;;27.55;19.75;;;8.20;99.90;;;;;;5016470;28;20022;-58
2022/10/13 03:00:12;;;;;;;31.70;19.48;;;8.20;99.90;;;;;;5016899;28;20389;-59
2022/10/13 03:02:37;;;;;;;43.92;23.48;;;8.10;99.90;;;;;;5018510;28;20111;-59
2022/10/13 03:05:03;;;;;;;39.97;23.13;;;8.20;99.90;;;;;;5016424;28;20030;-59
2022/10/13 03:07:29;;;;;;;44.30;22.42;;;8.10;99.90;;;;;;5020983;28;20028;-58
2022/10/13 03:09:55;;;;;;;38.17;20.65;;;8.20;99.90;;;;;;5021209;28;20100;-59
2022/10/13 03:12:20;;;;;;;40.38;21.30;;;8.10;99.90;;;;;;5015320;28;20034;-59
2022/10/13 03:14:46;;;;;;;41.90;21.63;;;8.10;99.90;;;;;;5020709;28;20045;-59
2022/10/13 03:17:12;;;;;;;44.30;21.17;;;8.10;99.90;;;;;;5015846;28;20450;-59
2022/10/13 03:19:37;;;;;;;37.90;20.63;;;8.10;99.90;;;;;;5013966;28;20107;-59
2022/10/13 03:22:03;;;;;;;36.08;20.52;;;8.10;99.90;;;;;;5015780;28;20060;-58
2022/10/13 03:24:28;;;;;;;39.88;20.85;;;8.10;99.90;;;;;;5018927;28;20033;-58
2022/10/13 03:26:54;;;;;;;44.25;21.70;;;8.10;99.90;;;;;;5016703;28;20033;-58
2022/10/13 03:29:21;;;;;;;38.70;21.85;;;8.10;99.90;;;;;;5018912;28;20049;-59
2022/10/13 03:31:47;;;;;;;47.70;23.13;;;8.20;99.90;;;;;;5015258;28;20514;-60
2022/10/13 03:34:15;;;;;;;40.20;20.42;;;8.20;99.90;;;;;;5019032;28;20108;-60
2022/10/13 03:36:40;;;;;;;40.30;21.30;;;8.20;99.90;;;;;;5019336;28;20227;-60
2022/10/13 03:39:06;;;;;;;35.15;21.80;;;8.30;99.90;;;;;;5023279;28;20124;-60
2022/10/13 03:41:32;;;;;;;40.78;21.73;;;8.30;99.90;;;;;;5016078;28;20033;-59
2022/10/13 03:43:57;;;;;;;34.85;21.05;;;8.30;99.90;;;;;;5019712;28;20041;-60
2022/10/13 03:46:27;;;;;;;39.58;20.02;;;8.40;99.90;;;;;;5019195;28;20110;-58
2022/10/13 03:48:53;;;;;;;67.82;38.30;;;8.40;99.90;;;;;;5016278;28;20045;-58
2022/10/13 03:51:22;;;;;;;53.17;28.50;;;8.40;99.90;;;;;;5018256;28;20041;-59
2022/10/13 03:53:48;;;;;;;45.40;23.00;;;8.30;99.90;;;;;;5026413;28;20030;-59
2022/10/13 03:56:18;;;;;;;30.05;20.50;;;8.40;99.90;;;;;;5019810;28;20029;-59
2022/10/13 03:58:44;;;;;;;36.85;21.48;;;8.40;99.90;;;;;;5019341;28;20022;-59
2022/10/13 04:01:12;;;;;;;33.78;19.40;;;8.40;99.90;;;;;;5016670;28;20009;-59
2022/10/13 04:03:38;;;;;;;48.78;22.52;;;8.40;99.90;;;;;;5017515;28;20549;-59
2022/10/13 04:06:05;;;;;;;38.33;20.08;;;8.40;99.90;;;;;;5019561;28;20143;-59
2022/10/13 04:08:31;;;;;;;36.13;19.20;;;8.40;99.90;;;;;;5020426;28;20108;-59
2022/10/13 04:11:03;;;;;;;35.42;18.92;;;8.40;99.90;;;;;;5018373;28;20574;-58
2022/10/13 04:13:29;;;;;;;29.75;19.83;;;8.30;99.90;;;;;;5020203;28;20055;-60
2022/10/13 04:15:54;;;;;;;37.03;20.70;;;8.30;99.90;;;;;;5019285;28;20735;-60
2022/10/13 04:18:20;;;;;;;39.25;21.13;;;8.30;99.90;;;;;;5014294;28;20030;-58
2022/10/13 04:20:46;;;;;;;43.22;23.63;;;8.30;99.90;;;;;;5017101;28;20036;-60
2022/10/13 04:23:11;;;;;;;53.08;26.25;;;8.30;99.90;;;;;;5018860;28;20417;-59
2022/10/13 04:25:37;;;;;;;45.42;25.85;;;8.30;99.90;;;;;;5015592;28;20025;-60
2022/10/13 04:28:05;;;;;;;47.92;25.45;;;8.40;99.90;;;;;;5015901;28;20030;-58
2022/10/13 04:30:32;;;;;;;34.38;21.15;;;8.40;99.90;;;;;;5016918;28;20113;-59
2022/10/13 04:32:58;;;;;;;50.03;22.80;;;8.50;99.90;;;;;;5017394;28;20041;-58
2022/10/13 04:35:24;;;;;;;46.38;24.23;;;8.50;99.90;;;;;;5015419;28;20030;-59
2022/10/13 04:37:49;;;;;;;35.92;22.27;;;8.60;99.90;;;;;;5019555;28;20427;-58
2022/10/13 04:40:15;;;;;;;42.83;21.77;;;8.60;99.90;;;;;;5026134;28;20045;-58
2022/10/13 04:42:41;;;;;;;39.40;21.70;;;8.60;99.90;;;;;;5022906;28;20103;-59
2022/10/13 04:45:07;;;;;;;51.30;23.73;;;8.60;99.90;;;;;;5020727;28;20033;-59
2022/10/13 04:47:34;;;;;;;44.40;21.60;;;8.60;99.90;;;;;;5018731;28;20152;-58
2022/10/13 04:49:59;;;;;;;50.20;27.63;;;8.70;99.90;;;;;;5022278;28;21098;-59
2022/10/13 04:52:25;;;;;;;41.80;22.90;;;8.70;99.90;;;;;;5020996;28;20022;-59
2022/10/13 04:54:51;;;;;;;35.95;21.15;;;8.70;99.90;;;;;;5025254;28;20075;-59
2022/10/13 04:57:16;;;;;;;51.25;25.15;;;8.70;99.90;;;;;;5019320;28;20014;-59
2022/10/13 04:59:42;;;;;;;48.20;24.05;;;8.70;99.90;;;;;;5017630;28;20088;-58
2022/10/13 05:02:09;;;;;;;37.15;22.50;;;8.70;99.90;;;;;;5016730;28;20030;-58
2022/10/13 05:04:35;;;;;;;42.28;21.42;;;8.70;99.90;;;;;;5022719;28;20029;-58
2022/10/13 05:07:00;;;;;;;31.73;20.77;;;8.70;99.90;;;;;;5026410;28;20103;-60
2022/10/13 05:09:26;;;;;;;41.47;21.85;;;8.70;99.90;;;;;;5023010;28;20443;-59
2022/10/13 05:11:53;;;;;;;42.63;22.30;;;8.70;99.90;;;;;;5020993;28;20040;-59
2022/10/13 05:14:20;;;;;;;38.08;21.02;;;8.70;99.90;;;;;;5020354;28;20056;-59
2022/10/13 05:16:46;;;;;;;41.33;24.27;;;8.70;99.90;;;;;;5016964;28;20030;-59
2022/10/13 05:19:12;;;;;;;55.25;26.83;;;8.70;99.90;;;;;;5019074;28;20025;-59
2022/10/13 05:21:38;;;;;;;56.97;26.38;;;8.70;99.90;;;;;;5022286;28;20160;-59
2022/10/13 05:24:05;;;;;;;59.70;28.42;;;8.80;99.90;;;;;;5019367;28;20116;-59
2022/10/13 05:26:33;;;;;;;65.95;28.55;;;8.80;99.90;;;;;;5020208;28;20122;-59
2022/10/13 05:29:00;;;;;;;65.80;29.17;;;8.80;99.90;;;;;;5018033;28;20034;-59
2022/10/13 05:31:27;;;;;;;53.83;26.42;;;8.90;99.90;;;;;;5019252;28;20025;-60
2022/10/13 05:33:54;;;;;;;66.22;28.60;;;9.00;99.90;;;;;;5020994;28;20219;-59
2022/10/13 05:36:33;;;;;;;58.85;28.48;;;9.00;99.90;;;;;;5020281;28;20022;-58
2022/10/13 05:39:03;;;;;;;49.53;26.25;;;9.00;99.90;;;;;;5019029;28;20418;-58
2022/10/13 05:41:30;;;;;;;57.90;27.52;;;9.10;99.90;;;;;;5020532;28;20618;-58
2022/10/13 05:43:58;;;;;;;63.63;29.33;;;9.10;99.90;;;;;;5021374;28;20061;-58
2022/10/13 05:46:24;;;;;;;58.83;27.48;;;9.10;99.90;;;;;;5018714;28;20033;-59
2022/10/13 05:48:50;;;;;;;67.40;25.48;;;9.10;99.90;;;;;;5019982;28;20400;-58
2022/10/13 05:51:29;;;;;;;67.55;28.65;;;9.20;99.90;;;;;;5018469;28;20022;-58
2022/10/13 05:54:13;;;;;;;58.33;28.38;;;9.30;99.90;;;;;;5021413;28;20034;-58
2022/10/13 05:56:49;;;;;;;55.67;26.48;;;9.30;99.90;;;;;;5020356;28;20812;-59
2022/10/13 05:59:17;;;;;;;49.15;26.23;;;9.40;99.90;;;;;;5016018;28;20038;-59
2022/10/13 06:01:44;;;;;;;49.75;25.13;;;9.50;99.90;;;;;;5019732;28;20037;-58
2022/10/13 06:04:16;;;;;;;61.17;27.15;;;9.60;99.90;;;;;;5021123;28;20110;-59
2022/10/13 06:06:41;;;;;;;58.03;26.75;;;9.70;99.90;;;;;;5018544;28;20113;-58
2022/10/13 06:09:07;;;;;;;54.28;26.33;;;9.70;99.90;;;;;;5022783;28;20062;-59
2022/10/13 06:11:33;;;;;;;53.05;26.83;;;9.80;99.90;;;;;;5017013;28;20026;-59
2022/10/13 06:13:59;;;;;;;51.45;25.10;;;9.90;99.90;;;;;;5020788;28;20029;-58
2022/10/13 06:16:24;;;;;;;44.03;25.98;;;9.90;99.90;;;;;;5020461;28;20021;-59
2022/10/13 06:18:50;;;;;;;54.50;27.17;;;9.90;99.90;;;;;;5018681;28;20443;-58
2022/10/13 06:21:16;;;;;;;54.85;25.55;;;10.00;99.90;;;;;;5019874;28;20501;-58
2022/10/13 06:23:41;;;;;;;45.55;25.10;;;10.00;99.90;;;;;;5021024;28;20030;-58
2022/10/13 06:26:08;;;;;;;37.80;23.02;;;10.00;99.90;;;;;;5018657;28;20048;-58
2022/10/13 06:28:34;;;;;;;42.28;23.73;;;10.00;99.90;;;;;;5016278;28;20025;-59
2022/10/13 06:31:02;;;;;;;53.05;25.75;;;10.10;99.90;;;;;;5017411;28;20109;-59
2022/10/13 06:33:28;;;;;;;47.42;24.80;;;10.10;99.90;;;;;;5016811;28;20033;-58
2022/10/13 06:35:53;;;;;;;53.58;23.92;;;10.20;99.90;;;;;;5017258;28;20040;-58
2022/10/13 06:38:19;;;;;;;39.90;22.63;;;10.30;99.90;;;;;;5017544;28;20117;-58
2022/10/13 06:40:45;;;;;;;52.58;22.70;;;10.30;99.90;;;;;;5021722;28;20103;-58
2022/10/13 06:43:10;;;;;;;44.78;22.70;;;10.40;99.90;;;;;;5022966;28;20029;-57
2022/10/13 06:45:36;;;;;;;44.47;23.75;;;10.50;99.90;;;;;;5018423;28;20446;-58
2022/10/13 06:48:02;;;;;;;39.58;23.58;;;10.60;99.90;;;;;;5013890;28;20067;-57
2022/10/13 06:50:28;;;;;;;46.80;25.35;;;10.60;99.90;;;;;;5012998;28;20537;-58
2022/10/13 06:52:55;;;;;;;46.42;24.45;;;10.70;99.90;;;;;;5021141;28;20029;-58
2022/10/13 06:55:21;;;;;;;44.20;23.95;;;10.70;99.90;;;;;;5022667;28;20109;-59
2022/10/13 06:57:46;;;;;;;42.58;23.95;;;10.80;99.90;;;;;;5017562;28;20124;-58
2022/10/13 07:00:12;;;;;;;46.63;24.20;;;10.80;99.90;;;;;;5018081;28;20422;-59
2022/10/13 07:02:38;;;;;;;37.13;22.67;;;10.80;99.90;;;;;;5013587;28;20113;-59
2022/10/13 07:05:04;;;;;;;41.28;23.38;;;10.90;99.90;;;;;;5020002;28;20034;-58
2022/10/13 07:07:29;;;;;;;37.20;23.17;;;10.90;99.90;;;;;;5016162;28;20021;-59
2022/10/13 07:09:55;;;;;;;42.17;24.33;;;10.90;99.90;;;;;;5019939;28;20837;-60
2022/10/13 07:12:21;;;;;;;41.03;23.00;;;11.00;99.90;;;;;;5018820;28;20021;-59
2022/10/13 07:14:47;;;;;;;38.97;22.55;;;11.00;99.90;;;;;;5016886;28;20030;-58
2022/10/13 07:17:12;;;;;;;40.53;23.55;;;11.00;99.90;;;;;;5022761;28;20076;-60
2022/10/13 07:19:38;;;;;;;41.88;23.40;;;11.10;99.90;;;;;;5019673;28;20037;-59
2022/10/13 07:22:04;;;;;;;44.70;24.95;;;11.10;99.90;;;;;;5024020;28;20017;-58
2022/10/13 07:24:29;;;;;;;41.83;22.88;;;11.10;99.90;;;;;;5017662;28;20083;-58
2022/10/13 07:26:55;;;;;;;35.03;21.92;;;11.20;99.90;;;;;;5017604;28;20121;-58
2022/10/13 07:29:21;;;;;;;35.65;21.95;;;11.20;99.90;;;;;;5019279;28;20083;-57
2022/10/13 07:31:46;;;;;;;34.13;20.50;;;11.30;99.90;;;;;;5018531;28;20062;-59
2022/10/13 07:34:14;;;;;;;41.92;19.85;;;11.40;99.90;;;;;;5022135;28;20071;-59
2022/10/13 07:36:40;;;;;;;45.00;23.02;;;11.40;99.90;;;;;;5020923;28;20025;-57
2022/10/13 07:39:09;;;;;;;37.25;20.55;;;11.50;99.90;;;;;;5017605;28;20029;-59
2022/10/13 07:41:36;;;;;;;38.60;20.02;;;11.50;99.90;;;;;;5015696;28;20033;-57
2022/10/13 07:44:02;;;;;;;37.22;20.63;;;11.60;99.90;;;;;;5015706;28;20537;-58
2022/10/13 07:46:27;;;;;;;32.05;19.70;;;11.60;99.90;;;;;;5016602;28;20572;-59
2022/10/13 07:48:53;;;;;;;39.75;22.13;;;11.60;99.90;;;;;;5021784;28;20065;-59
2022/10/13 07:51:20;;;;;;;36.15;20.35;;;11.70;99.90;;;;;;5020539;28;20051;-58
2022/10/13 07:53:47;;;;;;;38.10;20.33;;;11.60;99.90;;;;;;5014674;28;20502;-59
2022/10/13 07:56:14;;;;;;;39.03;22.67;;;11.50;99.90;;;;;;5014263;28;20037;-58
2022/10/13 07:58:43;;;;;;;42.97;25.15;;;11.50;99.90;;;;;;5017540;28;20026;-59
2022/10/13 08:01:09;;;;;;;39.50;21.10;;;11.40;99.90;;;;;;5018843;28;20032;-59
2022/10/13 08:03:35;;;;;;;32.83;21.08;;;11.40;99.90;;;;;;5010630;28;20026;-58
2022/10/13 08:06:02;;;;;;;40.60;20.85;;;11.40;99.90;;;;;;5018174;28;20037;-59
2022/10/13 08:08:29;;;;;;;33.67;22.50;;;11.50;99.90;;;;;;5014897;28;20517;-59
2022/10/13 08:10:59;;;;;;;38.67;22.23;;;11.60;99.90;;;;;;5016503;28;20038;-59
2022/10/13 08:13:25;;;;;;;30.77;19.85;;;11.70;99.90;;;;;;5015321;28;20036;-59
2022/10/13 08:15:51;;;;;;;39.85;21.25;;;11.70;99.90;;;;;;5019621;28;20029;-59
2022/10/13 08:18:16;;;;;;;36.33;20.63;;;11.80;99.90;;;;;;5023022;28;20115;-59
2022/10/13 08:20:44;;;;;;;39.10;21.83;;;11.90;99.90;;;;;;5020666;28;20045;-59
2022/10/13 08:23:11;;;;;;;31.92;20.30;;;11.90;99.90;;;;;;5017668;28;20502;-58
2022/10/13 08:25:41;;;;;;;33.03;20.33;;;11.90;99.90;;;;;;5016633;28;20104;-59
2022/10/13 08:28:25;;;;;;;30.90;21.08;;;12.00;99.90;;;;;;5017436;28;20025;-59
2022/10/13 08:30:52;;;;;;;35.28;21.52;;;11.90;99.90;;;;;;5023107;28;20033;-59
2022/10/13 08:33:19;;;;;;;37.35;21.88;;;12.00;99.90;;;;;;5015101;28;20037;-59
2022/10/13 08:35:45;;;;;;;43.65;22.65;;;12.00;99.90;;;;;;5018675;28;20033;-58
2022/10/13 08:38:10;;;;;;;35.00;20.63;;;12.10;99.90;;;;;;5018489;28;20033;-59
2022/10/13 08:40:37;;;;;;;31.00;21.77;;;12.20;99.90;;;;;;5015333;28;20057;-59
2022/10/13 08:43:11;;;;;;;36.53;22.05;;;12.20;99.90;;;;;;5017345;28;20429;-59
2022/10/13 08:45:37;;;;;;;37.05;21.77;;;12.30;99.90;;;;;;5017336;28;20631;-60
2022/10/13 08:48:08;;;;;;;36.53;21.00;;;12.20;99.90;;;;;;5016269;28;20076;-58
2022/10/13 08:50:38;;;;;;;35.63;21.85;;;12.30;99.90;;;;;;5014798;28;20533;-58
2022/10/13 08:53:13;;;;;;;34.33;21.38;;;12.40;99.90;;;;;;5016707;28;20489;-59
2022/10/13 08:55:51;;;;;;;36.13;22.42;;;12.50;99.90;;;;;;5018743;28;20021;-58
2022/10/13 08:58:20;;;;;;;38.15;22.42;;;12.60;99.90;;;;;;5015584;28;20034;-59
2022/10/13 09:00:45;;;;;;;41.78;21.95;;;12.70;99.90;;;;;;5013898;28;20031;-58
2022/10/13 09:03:20;;;;;;;43.53;23.40;;;12.80;99.90;;;;;;5017739;28;20128;-59
2022/10/13 09:06:14;;;;;;;610.63;63.95;;;12.90;99.90;;;;;;5018086;28;20037;-59
2022/10/13 09:08:47;;;;;;;1999.90;999.90;;;12.90;99.90;;;;;;5011137;28;20049;-58
2022/10/13 09:11:13;;;;;;;1999.90;999.90;;;12.90;99.90;;;;;;5015350;28;20125;-61
2022/10/13 09:13:39;;;;;;;1999.90;999.90;;;12.90;99.90;;;;;;5013657;28;20057;-62
2022/10/13 09:16:05;;;;;;;106.10;20.73;;;13.00;99.90;;;;;;5010749;28;20061;-61
2022/10/13 09:18:32;;;;;;;1999.90;999.90;;;13.00;99.90;;;;;;5015481;28;20033;-61
2022/10/13 09:21:29;;;;;;;47.30;27.85;;;13.00;99.90;;;;;;5014511;28;20029;-61
2022/10/13 09:24:05;;;;;;;1999.90;999.90;;;13.00;99.90;;;;;;5015050;28;20049;-61
2022/10/13 09:26:37;;;;;;;1999.90;999.90;;;13.10;99.90;;;;;;5016620;28;20037;-61
2022/10/13 09:29:10;;;;;;;;;;;13.00;99.90;;;;;;5020309;28;20033;-61
2022/10/13 09:31:36;;;;;;;1999.90;999.90;;;13.10;99.90;;;;;;5018846;28;19905;-60
2022/10/13 09:34:17;;;;;;;1999.90;999.90;;;13.10;99.90;;;;;;5020942;28;20033;-61
2022/10/13 09:37:04;;;;;;;1542.93;769.97;;;13.10;99.90;;;;;;5020631;28;20034;-59
2022/10/13 09:39:32;;;;;;;1999.90;999.90;;;13.10;99.90;;;;;;5022819;28;20703;-58
2022/10/13 09:42:34;;;;;;;1999.90;999.90;;;13.10;99.90;;;;;;5022141;28;20169;-60
2022/10/13 09:45:13;;;;;;;1999.90;999.90;;;13.20;99.90;;;;;;5016127;28;20030;-60
2022/10/13 09:47:39;;;;;;;1999.90;999.90;;;13.20;99.90;;;;;;5017847;28;20100;-58
2022/10/13 09:50:46;;;;;;;1999.90;999.90;;;13.30;99.90;;;;;;5022543;28;20120;-60
2022/10/13 09:53:35;;;;;;;1999.90;999.90;;;13.40;99.90;;;;;;4992272;28;20397;-60
2022/10/13 09:56:27;;;;;;;1999.90;999.90;;;13.50;99.90;;;;;;5019563;28;20036;-59
2022/10/13 09:59:17;;;;;;;260.02;80.38;;;13.60;99.90;;;;;;5015647;28;20042;-59
2022/10/13 10:01:45;;;;;;;134.80;34.72;;;13.60;99.90;;;;;;5016375;28;20029;-58
2022/10/13 10:04:19;;;;;;;64.88;31.48;;;13.60;99.90;;;;;;5019828;28;20039;-59
2022/10/13 10:06:45;;;;;;;60.17;30.33;;;13.70;99.90;;;;;;5019094;28;20053;-58
2022/10/13 10:09:32;;;;;;;69.32;31.98;;;13.70;99.90;;;;;;5017339;28;20506;-59
2022/10/13 10:11:59;;;;;;;70.82;32.90;;;13.90;99.90;;;;;;5019176;28;20079;-58
2022/10/13 10:14:27;;;;;;;58.92;29.13;;;14.20;99.90;;;;;;5014992;28;20048;-59
2022/10/13 10:17:06;;;;;;;61.38;29.80;;;14.50;99.90;;;;;;5017051;28;20026;-59
2022/10/13 10:20:21;;;;;;;61.67;27.52;;;14.60;99.90;;;;;;5019096;28;20036;-60
2022/10/13 10:23:17;;;;;;;66.07;27.13;;;14.70;99.90;;;;;;5003167;28;20735;-58
2022/10/13 10:25:52;;;;;;;57.35;27.90;;;14.70;99.90;;;;;;5018807;28;20069;-59
2022/10/13 10:28:26;;;;;;;63.63;29.48;;;14.70;99.90;;;;;;5016441;28;20038;-59
2022/10/13 10:31:07;;;;;;;58.75;28.17;;;14.60;99.90;;;;;;5017672;28;20129;-60
2022/10/13 10:34:13;;;;;;;52.28;28.48;;;14.50;99.90;;;;;;5015411;28;20029;-59
2022/10/13 10:36:56;;;;;;;46.38;25.63;;;14.60;99.90;;;;;;5014802;28;20165;-59
2022/10/13 10:39:48;;;;;;;45.45;24.80;;;14.60;99.90;;;;;;5018845;28;20085;-59
2022/10/13 10:42:43;;;;;;;47.38;24.15;;;14.50;99.90;;;;;;5021001;28;20037;-59
2022/10/13 10:45:25;;;;;;;54.92;24.90;;;14.40;99.90;;;;;;5019054;28;20532;-60
2022/10/13 10:47:55;;;;;;;53.55;25.88;;;14.30;99.90;;;;;;5021700;28;20056;-59
2022/10/13 10:50:22;;;;;;;50.33;24.33;;;14.30;99.90;;;;;;5016665;28;20037;-60
2022/10/13 10:53:16;;;;;;;44.25;22.60;;;14.30;99.90;;;;;;5019710;28;20445;-60
2022/10/13 10:56:02;;;;;;;51.05;26.45;;;14.40;99.90;;;;;;5019905;28;20485;-60
2022/10/13 10:58:43;;;;;;;45.58;23.52;;;14.40;99.90;;;;;;5019146;28;20029;-60
2022/10/13 11:01:17;;;;;;;51.43;25.60;;;14.30;99.90;;;;;;5018951;28;20024;-59
2022/10/13 11:04:08;;;;;;;53.53;27.27;;;14.20;99.90;;;;;;5020997;28;20500;-57
2022/10/13 11:06:37;;;;;;;67.38;28.13;;;14.00;99.90;;;;;;5027541;28;20092;-59
2022/10/13 11:09:05;;;;;;;62.83;27.10;;;13.90;99.90;;;;;;5016557;28;20064;-58
2022/10/13 11:11:33;;;;;;;57.50;27.23;;;14.00;99.90;;;;;;5015132;28;20030;-59
2022/10/13 11:14:04;;;;;;;53.97;26.20;;;14.10;99.90;;;;;;5017627;28;20069;-59
2022/10/13 11:16:49;;;;;;;;;;;14.20;99.90;;;;;;5017466;28;20029;-59
2022/10/13 11:19:29;;;;;;;51.67;25.25;;;14.30;99.90;;;;;;5017417;28;19916;-58
2022/10/13 11:21:58;;;;;;;43.90;22.80;;;14.40;99.90;;;;;;5005000;28;20042;-58
2022/10/13 11:24:32;;;;;;;52.78;23.73;;;14.50;99.90;;;;;;5016741;28;20087;-60
2022/10/13 11:27:07;;;;;;;47.22;22.77;;;14.60;99.90;;;;;;5015420;28;20144;-60
2022/10/13 11:32:43;;;;;;;44.20;20.73;;;15.10;99.90;;;;;;5015261;28;20437;-59
2022/10/13 11:35:09;;;;;;;31.52;20.23;;;15.40;99.90;;;;;;5015378;28;20034;-60
2022/10/13 11:38:04;;;;;;;35.90;20.02;;;15.60;99.90;;;;;;5019309;28;20034;-59
2022/10/13 11:40:54;;;;;;;40.00;20.45;;;15.60;99.90;;;;;;5016256;28;20017;-59
2022/10/13 11:43:20;;;;;;;28.02;18.30;;;15.70;99.90;;;;;;5016092;28;20026;-59
2022/10/13 11:46:03;;;;;;;25.65;16.80;;;15.60;99.90;;;;;;5012533;28;20393;-59
2022/10/13 11:48:43;;;;;;;18.35;14.00;;;15.50;99.90;;;;;;5014579;28;20120;-58
2022/10/13 11:51:27;;;;;;;26.08;16.17;;;15.30;99.90;;;;;;5019023;28;20040;-59
2022/10/13 11:54:31;;;;;;;25.63;15.98;;;15.00;99.90;;;;;;5016275;28;20030;-59
2022/10/13 11:56:57;;;;;;;32.05;18.52;;;14.80;99.90;;;;;;5018918;28;20528;-58
2022/10/13 11:59:28;;;;;;;35.90;17.70;;;14.60;99.90;;;;;;5018599;28;20846;-57
2022/10/13 12:01:58;;;;;;;38.60;19.30;;;14.50;99.90;;;;;;5019377;28;20044;-59
2022/10/13 12:04:27;;;;;;;39.83;20.10;;;14.40;99.90;;;;;;5015055;28;20121;-58
2022/10/13 12:06:59;;;;;;;44.28;21.90;;;14.40;99.90;;;;;;5012693;28;20272;-59
2022/10/13 12:09:26;;;;;;;40.97;21.27;;;14.50;99.90;;;;;;5019517;28;20039;-59
2022/10/13 12:11:58;;;;;;;39.63;20.20;;;14.50;99.90;;;;;;5014717;28;20037;-59
2022/10/13 12:14:38;;;;;;;43.53;22.75;;;14.50;99.90;;;;;;5016219;28;20053;-57
2022/10/13 12:17:17;;;;;;;44.33;20.48;;;14.50;99.90;;;;;;5016200;28;20022;-60
2022/10/13 12:19:43;;;;;;;36.67;20.50;;;14.40;99.90;;;;;;5016010;28;20393;-59
2022/10/13 12:22:13;;;;;;;43.50;21.95;;;14.40;99.90;;;;;;5018189;28;20018;-59
2022/10/13 12:24:39;;;;;;;35.92;20.27;;;14.40;99.90;;;;;;5016602;28;20073;-59
2022/10/13 12:27:20;;;;;;;39.72;21.33;;;14.30;99.90;;;;;;5016989;28;20033;-59
2022/10/13 12:29:46;;;;;;;34.08;19.90;;;14.40;99.90;;;;;;5016068;28;20120;-59
2022/10/13 12:32:24;;;;;;;37.22;19.65;;;14.50;99.90;;;;;;5015622;28;20124;-58
2022/10/13 12:34:50;;;;;;;31.10;18.48;;;14.50;99.90;;;;;;5017182;28;20113;-59
2022/10/13 12:37:25;;;;;;;34.53;19.55;;;14.70;99.90;;;;;;5015950;28;20029;-60
2022/10/13 12:39:51;;;;;;;41.33;20.05;;;14.80;99.90;;;;;;5016211;28;20449;-59
2022/10/13 12:42:17;;;;;;;35.85;19.83;;;15.00;99.90;;;;;;5016337;28;20026;-59
2022/10/13 12:44:44;;;;;;;36.05;19.10;;;15.30;99.90;;;;;;5022268;28;20049;-58
2022/10/13 12:47:37;;;;;;;30.98;18.55;;;15.50;99.90;;;;;;5018431;28;20037;-59
2022/10/13 12:50:26;;;;;;;28.13;17.95;;;15.60;99.90;;;;;;5015347;28;20045;-59
2022/10/13 12:53:13;;;;;;;30.08;18.42;;;15.70;99.90;;;;;;5015157;28;20037;-59